Terminal Aerodrome Forecast
Issued by NWS Omaha/Valley, NE

Home | Current Version | Previous Version | Text Only | Print | Product List | Glossary On
Versions: 1 2 3 4 5 6 7 8 9 10 11 12 13 14
000
FTUS43 KOAX 202132 AAA
TAFOMA
TAF AMD
KOMA 202132Z 2022/2118 19010KT P6SM BKN060 BKN150
      TEMPO 2023/2101 6SM -TSRA BKN060CB
     FM210900 32010KT P6SM BKN060 OVC100
      TEMPO 2109/2112 5SM -SHRA OVC040
     FM211400 34014KT P6SM BKN090=

USA.gov is the U.S. government's official web portal to all federal, state and local government web resources and services.